Time;durP1;ratioP1;P1;durP2;ratioP2;P2;SDS_P1;SDS_P2;PMS_P1;PMS_P2;Temp;Humidity;BMP_temperature;BMP_pressure;BME280_temperature;BME280_humidity;BME280_pressure;Samples;Min_cycle;Max_cycle;Signal;HPM_P1;HPM_P2
2023/07/05 00:00:36;;;;;;;31.05;27.75;;;16.80;99.90;;;;;;4975205;28;20050;-71
2023/07/05 00:03:03;;;;;;;30.70;27.77;;;16.70;99.90;;;;;;4991264;28;20407;-73
2023/07/05 00:05:30;;;;;;;31.33;27.95;;;16.80;99.90;;;;;;4991914;28;20139;-72
2023/07/05 00:07:57;;;;;;;32.30;29.10;;;16.70;99.90;;;;;;4991264;28;20053;-72
2023/07/05 00:10:24;;;;;;;31.27;28.33;;;16.70;99.90;;;;;;4992348;28;20748;-72
2023/07/05 00:12:51;;;;;;;30.75;27.85;;;16.70;99.90;;;;;;4990778;28;20046;-72
2023/07/05 00:15:18;;;;;;;30.88;28.05;;;16.70;99.90;;;;;;4992457;28;20033;-73
2023/07/05 00:17:44;;;;;;;31.60;28.55;;;16.70;99.90;;;;;;4992534;28;20034;-73
2023/07/05 00:20:12;;;;;;;31.75;28.58;;;16.70;99.90;;;;;;4991049;28;20145;-70
2023/07/05 00:22:39;;;;;;;31.60;28.67;;;16.60;99.90;;;;;;4988936;28;20112;-72
2023/07/05 00:25:06;;;;;;;31.48;28.67;;;16.60;99.90;;;;;;4978792;28;20054;-73
2023/07/05 00:27:33;;;;;;;31.05;28.10;;;16.60;99.90;;;;;;4990413;28;20536;-70
2023/07/05 00:30:01;;;;;;;31.17;28.40;;;16.50;99.90;;;;;;4991112;28;21179;-69
2023/07/05 00:32:27;;;;;;;31.98;28.77;;;16.50;99.90;;;;;;4989819;28;20042;-72
2023/07/05 00:34:55;;;;;;;31.80;28.50;;;16.50;99.90;;;;;;4989792;28;20053;-71
2023/07/05 00:37:21;;;;;;;32.53;29.42;;;16.50;99.90;;;;;;4989264;28;20042;-72
2023/07/05 00:39:48;;;;;;;31.38;28.30;;;16.50;99.90;;;;;;4975142;28;20054;-73
2023/07/05 00:42:15;;;;;;;31.17;28.25;;;16.50;99.90;;;;;;4991397;28;20042;-71
2023/07/05 00:45:11;;;;;;;31.38;28.20;;;16.50;99.90;;;;;;4990992;28;20049;-69
2023/07/05 00:47:42;;;;;;;32.85;29.85;;;16.60;99.90;;;;;;4993262;28;20057;-69
2023/07/05 00:50:23;;;;;;;31.33;28.35;;;16.60;99.90;;;;;;4997426;28;20038;-71
2023/07/05 00:52:52;;;;;;;31.23;28.40;;;16.60;99.90;;;;;;4994727;28;20057;-73
2023/07/05 00:55:20;;;;;;;34.20;29.00;;;16.60;99.90;;;;;;4975514;28;20069;-72
2023/07/05 00:57:47;;;;;;;32.10;29.10;;;16.60;99.90;;;;;;4994475;28;20050;-72
2023/07/05 01:00:17;;;;;;;34.10;30.80;;;16.60;99.90;;;;;;4998124;28;20049;-73
2023/07/05 01:02:49;;;;;;;31.08;28.35;;;16.60;99.90;;;;;;4990812;28;20535;-73
2023/07/05 01:05:17;;;;;;;32.80;29.15;;;16.60;99.90;;;;;;4993280;28;20074;-71
2023/07/05 01:07:45;;;;;;;31.05;28.25;;;16.60;99.90;;;;;;4993338;28;20160;-71
2023/07/05 01:10:24;;;;;;;31.85;28.83;;;16.60;99.90;;;;;;4995028;28;20053;-71
2023/07/05 01:13:11;;;;;;;31.42;28.42;;;16.60;99.90;;;;;;4975673;28;20408;-72
2023/07/05 01:15:51;;;;;;;30.50;27.73;;;16.60;99.90;;;;;;4993051;28;20133;-71
2023/07/05 01:18:37;;;;;;;32.95;29.73;;;16.60;99.90;;;;;;4993388;28;20664;-72
2023/07/05 01:21:28;;;;;;;32.38;29.08;;;16.70;99.90;;;;;;4993809;28;20081;-72
2023/07/05 01:24:12;;;;;;;32.00;29.05;;;16.60;99.90;;;;;;4993698;28;20712;-71
2023/07/05 01:26:59;;;;;;;32.03;29.23;;;16.50;99.90;;;;;;4991797;28;20054;-70
2023/07/05 01:29:38;;;;;;;31.15;28.48;;;16.50;99.90;;;;;;4992705;28;20041;-73
2023/07/05 01:32:19;;;;;;;31.35;28.33;;;16.50;99.90;;;;;;4976970;28;20073;-73
2023/07/05 01:34:54;;;;;;;32.80;29.55;;;16.50;99.90;;;;;;4995251;28;20074;-71
2023/07/05 01:37:35;;;;;;;33.38;30.00;;;16.60;99.90;;;;;;4993351;28;20076;-70
2023/07/05 01:40:13;;;;;;;32.05;29.02;;;16.60;99.90;;;;;;4994794;28;20054;-74
2023/07/05 01:42:41;;;;;;;32.15;29.08;;;16.60;99.90;;;;;;4991971;28;20539;-70
2023/07/05 01:45:09;;;;;;;32.80;29.65;;;16.60;99.90;;;;;;4995481;28;20034;-72
2023/07/05 01:47:54;;;;;;;32.40;29.48;;;16.70;99.90;;;;;;4995004;28;20054;-71
2023/07/05 01:50:34;;;;;;;33.38;29.98;;;16.60;99.90;;;;;;4991347;28;20777;-72
2023/07/05 01:53:20;;;;;;;33.78;30.17;;;16.40;99.90;;;;;;4994680;28;20038;-68
2023/07/05 01:56:09;;;;;;;33.55;30.02;;;16.30;99.90;;;;;;4989603;28;20679;-72
2023/07/05 01:58:42;;;;;;;32.92;29.65;;;16.20;99.90;;;;;;4991777;28;20108;-72
2023/07/05 02:01:11;;;;;;;32.15;29.05;;;16.10;99.90;;;;;;4991142;28;20041;-72
2023/07/05 02:03:38;;;;;;;32.22;29.25;;;16.10;99.90;;;;;;4991659;28;20046;-71
2023/07/05 02:06:07;;;;;;;32.90;29.52;;;16.00;99.90;;;;;;4974981;28;20097;-73
2023/07/05 02:08:39;;;;;;;32.17;28.98;;;15.90;99.90;;;;;;4993202;28;20144;-70
2023/07/05 02:11:06;;;;;;;31.67;28.67;;;15.90;99.90;;;;;;4993562;28;20041;-71
2023/07/05 02:13:34;;;;;;;32.33;28.95;;;15.80;99.90;;;;;;4992976;28;20072;-72
2023/07/05 02:16:01;;;;;;;31.77;28.52;;;15.80;99.90;;;;;;4992968;28;20164;-71
2023/07/05 02:18:29;;;;;;;30.75;28.00;;;15.80;99.90;;;;;;4991956;28;20053;-72
2023/07/05 02:20:56;;;;;;;30.70;28.00;;;15.90;99.90;;;;;;4993572;28;20423;-72
2023/07/05 02:23:24;;;;;;;29.48;26.27;;;15.80;99.90;;;;;;4992291;28;20425;-71
2023/07/05 02:25:51;;;;;;;30.20;27.10;;;15.90;99.90;;;;;;4991029;28;20073;-73
2023/07/05 02:28:18;;;;;;;45.88;25.10;;;15.90;99.90;;;;;;4993412;28;20128;-71
2023/07/05 02:30:45;;;;;;;20.98;19.40;;;16.00;99.90;;;;;;4974576;28;20050;-70
2023/07/05 02:33:12;;;;;;;21.88;20.38;;;16.00;99.90;;;;;;4992797;28;20140;-70
2023/07/05 02:35:39;;;;;;;21.38;19.88;;;16.00;99.90;;;;;;4989912;28;20594;-73
2023/07/05 02:38:06;;;;;;;18.17;17.17;;;16.10;99.90;;;;;;4988204;28;20046;-71
2023/07/05 02:40:33;;;;;;;23.13;20.95;;;16.10;99.90;;;;;;4992784;28;20100;-71
2023/07/05 02:43:00;;;;;;;18.58;17.58;;;16.10;99.90;;;;;;4990327;28;20218;-71
2023/07/05 02:45:28;;;;;;;18.98;17.85;;;16.10;99.90;;;;;;4991254;28;20056;-71
2023/07/05 02:47:55;;;;;;;19.30;18.20;;;16.20;99.90;;;;;;4972979;28;20081;-71
2023/07/05 02:50:23;;;;;;;18.80;17.73;;;16.10;99.90;;;;;;4992186;28;20050;-71
2023/07/05 02:52:49;;;;;;;19.25;17.95;;;16.10;99.90;;;;;;4990114;28;20069;-70
2023/07/05 02:55:18;;;;;;;17.23;16.27;;;16.10;99.90;;;;;;4990962;28;20054;-71
2023/07/05 02:57:44;;;;;;;17.35;16.20;;;16.10;99.90;;;;;;4974510;28;20034;-70
2023/07/05 03:00:11;;;;;;;20.13;17.73;;;16.00;99.90;;;;;;4991593;28;20619;-69
2023/07/05 03:02:40;;;;;;;18.92;17.42;;;16.00;99.90;;;;;;4989245;28;20104;-70
2023/07/05 03:05:12;;;;;;;29.95;15.70;;;16.00;99.90;;;;;;4992416;28;20038;-70
2023/07/05 03:07:39;;;;;;;17.20;16.25;;;15.90;99.90;;;;;;4987067;28;20805;-70
2023/07/05 03:10:07;;;;;;;17.70;16.50;;;16.00;99.90;;;;;;4993103;28;20061;-71
2023/07/05 03:12:34;;;;;;;16.60;15.80;;;16.00;99.90;;;;;;4950670;28;1149454;-70
2023/07/05 03:15:01;;;;;;;15.45;14.68;;;16.00;99.90;;;;;;4991381;28;20515;-71
2023/07/05 03:17:28;;;;;;;16.80;15.48;;;16.00;99.90;;;;;;4995772;28;20042;-73
2023/07/05 03:19:57;;;;;;;16.88;15.70;;;16.00;99.90;;;;;;4990349;28;20515;-70
2023/07/05 03:22:23;;;;;;;15.68;14.88;;;16.00;99.90;;;;;;4972070;28;20047;-69
2023/07/05 03:24:51;;;;;;;15.77;14.98;;;16.10;99.90;;;;;;4992724;28;20467;-70
2023/07/05 03:27:18;;;;;;;18.15;16.77;;;16.10;99.90;;;;;;4990082;28;20133;-70
2023/07/05 03:29:45;;;;;;;17.20;15.90;;;16.10;99.90;;;;;;4989693;28;20046;-71
2023/07/05 03:32:14;;;;;;;17.60;16.60;;;16.00;99.90;;;;;;4980344;28;20048;-72
2023/07/05 03:34:41;;;;;;;13.05;12.35;;;15.90;99.90;;;;;;4988711;28;20050;-73
2023/07/05 03:37:07;;;;;;;12.65;11.85;;;15.80;99.90;;;;;;4986873;28;20511;-73
2023/07/05 03:39:34;;;;;;;11.32;10.75;;;15.70;99.90;;;;;;4990184;28;20054;-73
2023/07/05 03:42:02;;;;;;;11.77;11.20;;;15.60;99.90;;;;;;4974938;28;20049;-73
2023/07/05 03:44:29;;;;;;;37.60;11.85;;;15.50;99.90;;;;;;4992612;28;20043;-72
2023/07/05 03:46:56;;;;;;;10.80;10.20;;;15.40;99.90;;;;;;4990875;28;20069;-71
2023/07/05 03:49:22;;;;;;;8.93;8.50;;;15.40;99.90;;;;;;4992279;28;20046;-72
2023/07/05 03:51:49;;;;;;;7.60;7.30;;;15.40;99.90;;;;;;4990899;28;20034;-72
2023/07/05 03:54:16;;;;;;;9.13;8.52;;;15.40;99.90;;;;;;4991011;28;20041;-72
2023/07/05 03:56:43;;;;;;;9.40;8.82;;;15.30;99.90;;;;;;4990580;28;20155;-73
2023/07/05 03:59:10;;;;;;;14.82;13.43;;;15.30;99.90;;;;;;4989211;28;20612;-72
2023/07/05 04:01:37;;;;;;;15.43;13.93;;;15.30;99.90;;;;;;4988979;28;20547;-72
2023/07/05 04:04:04;;;;;;;17.23;15.52;;;15.40;99.90;;;;;;4988809;28;20041;-72
2023/07/05 04:06:32;;;;;;;14.90;13.48;;;15.40;99.90;;;;;;4989072;28;20129;-73
2023/07/05 04:09:00;;;;;;;13.38;12.18;;;15.30;99.90;;;;;;4989616;28;20049;-72
2023/07/05 04:11:26;;;;;;;13.82;12.52;;;15.40;99.90;;;;;;4990260;28;20408;-71
2023/07/05 04:13:55;;;;;;;13.98;12.50;;;15.40;99.90;;;;;;4990828;28;20688;-71
2023/07/05 04:16:24;;;;;;;15.50;14.00;;;15.40;99.90;;;;;;4990552;28;20128;-71
2023/07/05 04:18:54;;;;;;;15.10;13.70;;;15.50;99.90;;;;;;4990270;28;20100;-73
2023/07/05 04:21:21;;;;;;;12.63;11.40;;;15.50;99.90;;;;;;4992532;28;20045;-74
2023/07/05 04:23:48;;;;;;;12.75;11.73;;;15.50;99.90;;;;;;4998545;28;20166;-73
2023/07/05 04:26:22;;;;;;;13.60;12.20;;;15.40;99.90;;;;;;4989373;28;20052;-73
2023/07/05 04:28:49;;;;;;;15.23;12.80;;;15.40;99.90;;;;;;4994196;28;20030;-72
2023/07/05 04:31:29;;;;;;;16.98;13.75;;;15.40;99.90;;;;;;4996295;28;20050;-75
2023/07/05 04:33:58;;;;;;;15.02;13.45;;;15.40;99.90;;;;;;4990529;28;20053;-73
2023/07/05 04:36:25;;;;;;;22.52;12.63;;;15.30;99.90;;;;;;4997337;28;20705;-73
2023/07/05 04:38:56;;;;;;;17.77;11.65;;;15.20;99.90;;;;;;4996961;28;20053;-73
2023/07/05 04:41:24;;;;;;;23.65;11.73;;;15.10;99.90;;;;;;5000388;28;20046;-74
2023/07/05 04:43:53;;;;;;;14.77;10.40;;;15.00;99.90;;;;;;4995917;28;20050;-75
2023/07/05 04:46:21;;;;;;;11.63;9.40;;;14.80;99.90;;;;;;4979795;28;20050;-75
2023/07/05 04:48:48;;;;;;;21.13;10.70;;;14.80;99.90;;;;;;4992739;28;20708;-73
2023/07/05 04:51:15;;;;;;;16.05;9.70;;;14.80;99.90;;;;;;4998588;28;20159;-72
2023/07/05 04:53:42;;;;;;;10.55;8.48;;;14.80;99.90;;;;;;4999776;28;20728;-73
2023/07/05 04:56:14;;;;;;;8.60;7.63;;;14.80;99.90;;;;;;4994262;28;20104;-75
2023/07/05 04:58:42;;;;;;;9.07;7.93;;;14.80;99.90;;;;;;4998628;28;21044;-71
2023/07/05 05:01:10;;;;;;;9.90;8.88;;;14.80;99.90;;;;;;4978937;28;20033;-72
2023/07/05 05:03:37;;;;;;;10.70;8.80;;;14.80;99.90;;;;;;4994667;28;20054;-72
2023/07/05 05:06:04;;;;;;;11.45;8.75;;;14.90;99.90;;;;;;4996646;28;20803;-72
2023/07/05 05:08:31;;;;;;;11.30;9.18;;;14.80;99.90;;;;;;5000648;28;20053;-72
2023/07/05 05:11:00;;;;;;;12.43;10.23;;;14.80;99.90;;;;;;4996069;28;20049;-72
2023/07/05 05:13:29;;;;;;;10.43;9.15;;;14.80;99.90;;;;;;4995556;28;20042;-72
2023/07/05 05:15:56;;;;;;;9.10;8.07;;;14.90;99.90;;;;;;4996444;28;20049;-73
2023/07/05 05:18:24;;;;;;;8.25;7.40;;;14.80;99.90;;;;;;4980933;28;20050;-71
2023/07/05 05:20:51;;;;;;;9.45;8.52;;;14.80;99.90;;;;;;4992949;28;20038;-71
2023/07/05 05:23:18;;;;;;;8.70;7.95;;;14.80;99.90;;;;;;4977159;28;20046;-72
2023/07/05 05:25:46;;;;;;;9.13;8.32;;;14.80;99.90;;;;;;4992091;28;20042;-71
2023/07/05 05:28:14;;;;;;;9.50;8.60;;;14.80;99.90;;;;;;4991095;28;20057;-72
2023/07/05 05:30:43;;;;;;;8.95;8.13;;;14.80;99.90;;;;;;4993694;28;20038;-72
2023/07/05 05:33:13;;;;;;;8.80;7.90;;;14.80;99.90;;;;;;4991017;28;20049;-71
2023/07/05 05:35:46;;;;;;;8.00;7.40;;;14.80;99.90;;;;;;4993645;28;20065;-71
2023/07/05 05:38:12;;;;;;;6.68;6.07;;;14.80;99.90;;;;;;4990665;28;20129;-71
2023/07/05 05:40:39;;;;;;;6.70;6.00;;;14.80;99.90;;;;;;4992576;28;20524;-71
2023/07/05 05:43:06;;;;;;;4.97;4.43;;;14.80;99.90;;;;;;4991937;28;20147;-71
2023/07/05 05:45:34;;;;;;;4.18;3.78;;;14.80;99.90;;;;;;4991771;28;20053;-72
2023/07/05 05:48:00;;;;;;;4.13;3.47;;;14.80;99.90;;;;;;4991703;28;20474;-71
2023/07/05 05:50:27;;;;;;;4.28;3.88;;;14.80;99.90;;;;;;4992034;28;20436;-71
2023/07/05 05:52:54;;;;;;;7.65;4.60;;;14.80;99.90;;;;;;4992960;28;20030;-70
2023/07/05 05:55:21;;;;;;;4.40;4.10;;;14.90;99.90;;;;;;4991712;28;20057;-72
2023/07/05 05:57:47;;;;;;;5.45;5.10;;;14.90;99.90;;;;;;4975597;28;20037;-70
2023/07/05 06:00:14;;;;;;;5.47;5.18;;;14.90;99.90;;;;;;4990899;28;20057;-71
2023/07/05 06:02:41;;;;;;;6.03;5.43;;;15.00;99.90;;;;;;4993254;28;20096;-71
2023/07/05 06:05:09;;;;;;;13.18;6.13;;;15.00;99.90;;;;;;4993364;28;20072;-71
2023/07/05 06:07:36;;;;;;;6.60;6.20;;;15.10;99.90;;;;;;4993240;28;20050;-70
2023/07/05 06:10:03;;;;;;;8.80;8.40;;;15.00;99.90;;;;;;4990860;28;20135;-70
2023/07/05 06:12:30;;;;;;;9.73;9.23;;;15.00;99.90;;;;;;4992821;28;20046;-71
2023/07/05 06:14:57;;;;;;;11.80;10.95;;;15.00;99.90;;;;;;4977397;28;20038;-69
2023/07/05 06:17:23;;;;;;;12.00;11.20;;;15.00;99.90;;;;;;4991628;28;20076;-71
2023/07/05 06:19:50;;;;;;;11.45;10.75;;;15.00;99.90;;;;;;4988942;28;20252;-71
2023/07/05 06:22:17;;;;;;;11.07;10.40;;;15.10;99.90;;;;;;4991631;28;20280;-71
2023/07/05 06:24:44;;;;;;;10.60;10.00;;;15.20;99.90;;;;;;4993451;28;20691;-71
2023/07/05 06:27:11;;;;;;;8.90;8.30;;;15.20;99.90;;;;;;4992493;28;20137;-70
2023/07/05 06:29:38;;;;;;;8.30;7.80;;;15.20;99.90;;;;;;4991881;28;20054;-71
2023/07/05 06:32:05;;;;;;;8.52;7.93;;;15.10;99.90;;;;;;4990539;28;20129;-72
2023/07/05 06:34:32;;;;;;;9.15;8.35;;;15.10;99.90;;;;;;4993570;28;20054;-70
2023/07/05 06:36:59;;;;;;;8.27;7.68;;;15.00;99.90;;;;;;4993350;28;20060;-70
2023/07/05 06:39:26;;;;;;;10.40;9.38;;;14.80;99.90;;;;;;4992831;28;20100;-71
2023/07/05 06:41:52;;;;;;;10.13;9.40;;;14.70;99.90;;;;;;4992521;28;20088;-71
2023/07/05 06:44:19;;;;;;;13.43;12.43;;;14.70;99.90;;;;;;4993287;28;20041;-71
2023/07/05 06:46:46;;;;;;;14.00;13.00;;;14.50;99.90;;;;;;4993825;28;20062;-72
2023/07/05 06:49:13;;;;;;;15.07;13.90;;;14.60;99.90;;;;;;4991027;28;20046;-72
2023/07/05 06:51:39;;;;;;;14.00;13.20;;;14.70;99.90;;;;;;4993470;28;20230;-72
2023/07/05 06:54:06;;;;;;;16.08;14.75;;;14.90;99.90;;;;;;4993255;28;20052;-72
2023/07/05 06:56:35;;;;;;;16.70;15.60;;;15.10;99.90;;;;;;4994823;28;20050;-73
2023/07/05 06:59:01;;;;;;;16.92;15.82;;;15.30;99.90;;;;;;4974049;28;20049;-72
2023/07/05 07:01:28;;;;;;;18.90;17.52;;;15.70;99.90;;;;;;4993166;28;20042;-73
2023/07/05 07:03:55;;;;;;;20.67;19.38;;;15.90;99.90;;;;;;4993203;28;20053;-73
2023/07/05 07:06:23;;;;;;;22.02;20.33;;;16.00;99.90;;;;;;4993318;28;20581;-73
2023/07/05 07:08:49;;;;;;;22.60;21.10;;;16.00;99.90;;;;;;4991659;28;20787;-70
2023/07/05 07:11:16;;;;;;;23.17;21.48;;;15.90;99.90;;;;;;4990405;28;20041;-70
2023/07/05 07:13:43;;;;;;;24.58;22.80;;;16.00;99.90;;;;;;4975775;28;20046;-72
2023/07/05 07:16:12;;;;;;;24.75;22.83;;;15.90;99.90;;;;;;4990916;28;20038;-71
2023/07/05 07:18:44;;;;;;;24.30;22.50;;;15.90;99.90;;;;;;4992672;28;20672;-72
2023/07/05 07:21:12;;;;;;;24.90;23.00;;;16.00;99.90;;;;;;4991693;28;20080;-71
2023/07/05 07:23:39;;;;;;;23.95;22.25;;;15.80;99.90;;;;;;4993888;28;20046;-71
2023/07/05 07:26:09;;;;;;;24.90;22.90;;;15.60;99.90;;;;;;4988096;28;20041;-71
2023/07/05 07:28:36;;;;;;;24.70;22.70;;;15.30;99.90;;;;;;4995231;28;20863;-71
2023/07/05 07:31:24;;;;;;;25.02;23.13;;;15.10;99.90;;;;;;4989051;28;20104;-70
2023/07/05 07:33:52;;;;;;;24.15;22.20;;;14.90;99.90;;;;;;4990005;28;20046;-71
2023/07/05 07:36:24;;;;;;;22.80;21.15;;;14.80;99.90;;;;;;4991327;28;20811;-71
2023/07/05 07:38:52;;;;;;;22.60;21.10;;;14.70;99.90;;;;;;4990903;28;20046;-72
2023/07/05 07:41:20;;;;;;;21.73;20.38;;;14.60;99.90;;;;;;4990380;28;20057;-72
2023/07/05 07:43:50;;;;;;;23.92;21.77;;;14.60;99.90;;;;;;4994135;28;20053;-71
2023/07/05 07:46:19;;;;;;;23.52;21.83;;;14.50;99.90;;;;;;4990041;28;20038;-70
2023/07/05 07:48:48;;;;;;;22.10;20.60;;;14.50;99.90;;;;;;4993944;28;20129;-72
2023/07/05 07:51:16;;;;;;;24.05;22.35;;;14.50;99.90;;;;;;4988155;28;20069;-72
2023/07/05 07:54:04;;;;;;;23.33;21.55;;;14.50;99.90;;;;;;4987022;28;20717;-72
2023/07/05 07:56:31;;;;;;;24.60;22.65;;;14.50;99.90;;;;;;4978207;28;20046;-71
2023/07/05 07:59:01;;;;;;;24.63;22.83;;;14.50;99.90;;;;;;4995389;28;20136;-71
2023/07/05 08:01:32;;;;;;;25.35;23.42;;;14.80;99.90;;;;;;4986027;28;20058;-71
2023/07/05 08:04:01;;;;;;;25.10;23.10;;;15.20;99.90;;;;;;4990534;28;20072;-71
2023/07/05 08:06:40;;;;;;;25.33;23.42;;;15.40;99.90;;;;;;4989833;28;20053;-72
2023/07/05 08:09:11;;;;;;;25.45;23.65;;;15.30;99.90;;;;;;4990690;28;20620;-72
2023/07/05 08:11:41;;;;;;;26.42;24.42;;;15.30;99.90;;;;;;4993685;28;20034;-71
2023/07/05 08:14:09;;;;;;;25.13;23.33;;;15.60;99.90;;;;;;4974785;28;20739;-73
2023/07/05 08:16:36;;;;;;;25.08;23.23;;;15.90;99.90;;;;;;4993089;28;20779;-71
2023/07/05 08:19:03;;;;;;;26.10;24.10;;;15.90;99.90;;;;;;4991798;28;20103;-71
2023/07/05 08:21:30;;;;;;;26.02;23.95;;;15.90;99.90;;;;;;4988479;28;20053;-72
2023/07/05 08:23:57;;;;;;;25.75;23.75;;;15.90;99.90;;;;;;4992074;28;20201;-72
2023/07/05 08:26:36;;;;;;;25.92;23.73;;;15.80;99.90;;;;;;4993673;28;20061;-73
2023/07/05 08:29:03;;;;;;;26.90;24.80;;;15.80;99.90;;;;;;4994107;28;20052;-73
2023/07/05 08:31:30;;;;;;;27.52;25.42;;;16.00;99.90;;;;;;4993520;28;22074;-73
2023/07/05 08:33:57;;;;;;;26.45;24.35;;;16.30;99.90;;;;;;4971022;28;20133;-71
2023/07/05 08:36:32;;;;;;;25.65;23.90;;;16.60;99.90;;;;;;4987753;28;20393;-71
2023/07/05 08:39:03;;;;;;;27.35;25.25;;;16.80;99.90;;;;;;4990833;28;20532;-73
2023/07/05 08:41:41;;;;;;;26.15;23.75;;;16.80;99.90;;;;;;4988282;28;20076;-73
2023/07/05 08:44:31;;;;;;;27.45;25.65;;;17.10;99.90;;;;;;4991965;28;20053;-70
2023/07/05 08:47:07;;;;;;;28.67;26.67;;;17.20;99.90;;;;;;4989844;28;20057;-71
2023/07/05 08:49:40;;;;;;;28.45;26.27;;;17.10;99.90;;;;;;4995742;28;20080;-72
2023/07/05 08:52:21;;;;;;;28.30;26.30;;;17.00;99.90;;;;;;4988924;28;20046;-72
2023/07/05 08:54:53;;;;;;;26.67;24.88;;;17.20;99.90;;;;;;4989320;28;20145;-73
2023/07/05 08:57:32;;;;;;;26.77;25.08;;;17.40;99.90;;;;;;4993657;28;21008;-73
2023/07/05 09:00:11;;;;;;;25.92;24.23;;;17.30;99.90;;;;;;4971802;28;20042;-73
2023/07/05 09:02:38;;;;;;;26.75;25.05;;;17.60;99.90;;;;;;4989581;28;20056;-74
2023/07/05 09:05:16;;;;;;;27.73;25.83;;;17.50;99.90;;;;;;4992428;28;20045;-73
2023/07/05 09:07:43;;;;;;;27.13;25.33;;;17.00;99.90;;;;;;4988923;28;20045;-72
2023/07/05 09:10:25;;;;;;;27.60;25.70;;;16.60;99.90;;;;;;4994994;28;20130;-72
2023/07/05 09:13:11;;;;;;;26.65;24.85;;;16.20;99.90;;;;;;4992986;28;20100;-72
2023/07/05 09:16:21;;;;;;;26.90;25.08;;;16.00;99.90;;;;;;4992928;28;20042;-72
2023/07/05 09:19:05;;;;;;;27.23;25.42;;;15.90;99.90;;;;;;4987042;28;20049;-74
2023/07/05 09:21:39;;;;;;;27.70;25.73;;;15.80;99.90;;;;;;4991304;28;20108;-75
2023/07/05 09:24:26;;;;;;;27.55;25.85;;;15.70;99.90;;;;;;4994202;28;20046;-72
2023/07/05 09:26:57;;;;;;;27.05;25.27;;;15.70;99.90;;;;;;4994215;28;20834;-72
2023/07/05 09:29:41;;;;;;;25.70;23.98;;;15.50;99.90;;;;;;4992537;28;20524;-73
2023/07/05 09:32:12;;;;;;;25.90;24.20;;;15.40;99.90;;;;;;4996321;28;20040;-73
2023/07/05 09:34:46;;;;;;;25.88;24.17;;;15.40;99.90;;;;;;4996900;28;20046;-72
2023/07/05 09:37:19;;;;;;;25.77;24.08;;;15.60;99.90;;;;;;4992964;28;20689;-72
2023/07/05 09:40:11;;;;;;;25.07;23.20;;;15.70;99.90;;;;;;4994519;28;20042;-71
2023/07/05 09:42:51;;;;;;;24.45;22.73;;;15.60;99.90;;;;;;4994231;28;20288;-72
2023/07/05 09:45:19;;;;;;;25.98;24.23;;;15.70;99.90;;;;;;4991915;28;20050;-73
2023/07/05 09:47:48;;;;;;;26.33;24.60;;;16.00;99.90;;;;;;4993581;28;20070;-72
2023/07/05 09:50:20;;;;;;;26.45;24.55;;;16.10;99.90;;;;;;4992992;28;20050;-70
2023/07/05 09:52:59;;;;;;;25.40;23.60;;;16.30;99.90;;;;;;4994813;28;20084;-73
2023/07/05 09:55:26;;;;;;;24.80;22.92;;;16.40;99.90;;;;;;4991273;28;20065;-72
2023/07/05 09:57:57;;;;;;;24.15;22.45;;;16.40;99.90;;;;;;4993938;28;20073;-72
2023/07/05 10:00:24;;;;;;;25.05;23.25;;;16.30;99.90;;;;;;4992714;28;20037;-72
2023/07/05 10:02:55;;;;;;;23.77;22.15;;;16.30;99.90;;;;;;4995674;28;20034;-72
2023/07/05 10:05:28;;;;;;;23.90;22.23;;;16.20;99.90;;;;;;4991720;28;20054;-71
2023/07/05 10:07:59;;;;;;;26.30;24.40;;;16.30;99.90;;;;;;4996741;28;20092;-71
2023/07/05 10:10:32;;;;;;;23.42;21.83;;;16.30;99.90;;;;;;4991560;28;20054;-71
2023/07/05 10:13:11;;;;;;;23.83;22.13;;;16.30;99.90;;;;;;4991669;28;20644;-74
2023/07/05 10:15:49;;;;;;;23.60;22.00;;;16.30;99.90;;;;;;4997152;28;20061;-71
2023/07/05 10:18:26;;;;;;;28.27;26.48;;;16.20;99.90;;;;;;4989284;28;20127;-72
2023/07/05 10:20:57;;;;;;;24.35;22.60;;;16.20;99.90;;;;;;4992052;28;20492;-72
2023/07/05 10:23:25;;;;;;;24.05;22.35;;;16.20;99.90;;;;;;4994300;28;20061;-71
2023/07/05 10:26:00;;;;;;;23.75;22.00;;;16.20;99.90;;;;;;4996959;28;20053;-72
2023/07/05 10:28:29;;;;;;;23.23;21.67;;;16.20;99.90;;;;;;4990972;28;20042;-72
2023/07/05 10:31:04;;;;;;;24.00;22.45;;;16.10;99.90;;;;;;4998348;28;20137;-71
2023/07/05 10:33:32;;;;;;;;;;;15.80;99.90;;;;;;4994884;28;20273;-72
2023/07/05 10:35:59;;;;;;;23.77;22.08;;;15.70;99.90;;;;;;4994988;28;19927;-72
2023/07/05 10:38:40;;;;;;;23.40;21.70;;;15.60;99.90;;;;;;4993286;28;20057;-71
2023/07/05 10:41:19;;;;;;;22.80;21.30;;;15.60;99.90;;;;;;4994395;28;20069;-73
2023/07/05 10:44:06;;;;;;;23.50;21.85;;;15.80;99.90;;;;;;4992935;28;20049;-72
2023/07/05 10:46:37;;;;;;;24.52;22.58;;;15.90;99.90;;;;;;4995393;28;20050;-72
2023/07/05 10:49:10;;;;;;;25.35;23.55;;;16.00;99.90;;;;;;4993852;28;20038;-71
2023/07/05 10:51:40;;;;;;;25.45;23.63;;;16.10;99.90;;;;;;4991133;28;20053;-72
2023/07/05 10:54:45;;;;;;;25.60;23.73;;;16.40;99.90;;;;;;4991450;28;20054;-73
2023/07/05 10:57:39;;;;;;;30.67;28.55;;;16.80;99.90;;;;;;4993039;28;20045;-71
2023/07/05 11:00:21;;;;;;;25.23;23.08;;;16.90;99.90;;;;;;4994340;28;20112;-72
2023/07/05 11:03:10;;;;;;;27.48;25.70;;;17.00;99.90;;;;;;4991847;28;20137;-72
2023/07/05 11:05:50;;;;;;;25.85;24.20;;;17.00;99.90;;;;;;4990926;28;20057;-73
2023/07/05 11:08:23;;;;;;;23.58;21.90;;;17.20;99.90;;;;;;4977390;28;20065;-70
2023/07/05 11:10:51;;;;;;;24.58;22.73;;;17.30;99.90;;;;;;4992443;28;20448;-72
2023/07/05 11:13:20;;;;;;;23.35;21.38;;;17.40;99.90;;;;;;4992543;28;20034;-72
2023/07/05 11:15:48;;;;;;;28.45;26.52;;;17.30;99.90;;;;;;4994984;28;20041;-72
2023/07/05 11:18:20;;;;;;;24.00;22.30;;;17.20;99.90;;;;;;4991545;28;20033;-72
2023/07/05 11:20:51;;;;;;;24.67;23.08;;;17.20;99.90;;;;;;4993845;28;20149;-71
2023/07/05 11:23:43;;;;;;;23.73;22.02;;;17.20;99.90;;;;;;4995796;28;20042;-72
2023/07/05 11:26:11;;;;;;;24.10;22.40;;;17.30;99.90;;;;;;4977026;28;20050;-72
2023/07/05 11:28:39;;;;;;;24.55;22.75;;;17.10;99.90;;;;;;4993452;28;20516;-74
2023/07/05 11:31:30;;;;;;;25.38;23.67;;;17.00;99.90;;;;;;4992780;28;20472;-73
2023/07/05 11:34:22;;;;;;;24.35;22.73;;;17.00;99.90;;;;;;4991191;28;20030;-72
2023/07/05 11:37:03;;;;;;;24.52;22.70;;;17.00;99.90;;;;;;4993558;28;20477;-71
2023/07/05 11:39:48;;;;;;;23.98;21.90;;;16.90;99.90;;;;;;4990968;28;20042;-72
2023/07/05 11:42:15;;;;;;;25.90;24.20;;;17.00;99.90;;;;;;4993399;28;20671;-72
2023/07/05 11:44:45;;;;;;;25.83;24.05;;;16.90;99.90;;;;;;4989955;28;20050;-72
2023/07/05 11:47:24;;;;;;;24.27;22.67;;;16.90;99.90;;;;;;4992109;28;20049;-72
2023/07/05 11:50:09;;;;;;;25.42;23.55;;;16.80;99.90;;;;;;4994542;28;20078;-71
2023/07/05 11:52:44;;;;;;;26.80;25.20;;;16.80;99.90;;;;;;4991518;28;20054;-73
2023/07/05 11:55:21;;;;;;;27.02;24.98;;;16.80;99.90;;;;;;4992647;28;20038;-71
2023/07/05 11:58:04;;;;;;;25.77;24.25;;;16.70;99.90;;;;;;4994486;28;20046;-72
2023/07/05 12:00:35;;;;;;;25.63;24.05;;;16.70;99.90;;;;;;4993309;28;20045;-73
2023/07/05 12:03:15;;;;;;;23.58;21.90;;;16.60;99.90;;;;;;4991934;28;20108;-72
2023/07/05 12:05:43;;;;;;;25.02;23.33;;;16.60;99.90;;;;;;4989269;28;20615;-73
2023/07/05 12:08:15;;;;;;;26.23;23.67;;;16.60;99.90;;;;;;4991581;28;20113;-71
2023/07/05 12:10:58;;;;;;;25.55;23.42;;;16.80;99.90;;;;;;4996125;28;20103;-72
2023/07/05 12:13:30;;;;;;;25.75;24.05;;;16.90;99.90;;;;;;4999447;28;20690;-71
2023/07/05 12:15:58;;;;;;;26.05;24.25;;;16.90;99.90;;;;;;4999157;28;20041;-72
2023/07/05 12:18:27;;;;;;;24.77;22.88;;;16.90;99.90;;;;;;4995419;28;20049;-71
2023/07/05 12:20:55;;;;;;;27.73;25.10;;;16.90;99.90;;;;;;4995264;28;20038;-72
2023/07/05 12:23:24;;;;;;;25.70;23.98;;;17.10;99.90;;;;;;4990465;28;20062;-72
2023/07/05 12:25:53;;;;;;;25.45;23.75;;;17.40;99.90;;;;;;4998453;28;20145;-72
2023/07/05 12:28:31;;;;;;;25.33;23.52;;;17.70;99.90;;;;;;4995656;28;20128;-72
2023/07/05 12:31:08;;;;;;;24.52;22.98;;;17.90;99.90;;;;;;4994563;28;20061;-73
2023/07/05 12:33:36;;;;;;;24.98;22.90;;;17.70;99.90;;;;;;4994689;28;20174;-73
2023/07/05 12:36:08;;;;;;;29.45;27.20;;;17.80;99.90;;;;;;4983800;28;20061;-70
2023/07/05 12:38:38;;;;;;;26.05;24.20;;;17.90;99.90;;;;;;4993222;28;20060;-73
2023/07/05 12:41:07;;;;;;;26.02;24.05;;;18.20;99.90;;;;;;4996989;28;20037;-71
2023/07/05 12:43:34;;;;;;;25.73;23.63;;;18.20;99.90;;;;;;5000178;28;20141;-71
2023/07/05 12:46:22;;;;;;;24.88;22.80;;;18.10;99.90;;;;;;4994651;28;20080;-72
2023/07/05 12:48:49;;;;;;;25.70;23.63;;;18.00;99.90;;;;;;5000289;28;20148;-71
2023/07/05 12:51:20;;;;;;;27.02;25.10;;;17.80;99.90;;;;;;4996547;28;20042;-72